ICAO code: LHPR | IATA code: QGY | AFTN: LHPRZPZX | english | deutsch
Időjárás: 2018-09-21 08:20 (UTC) | Hőmérséklet: 24.1 °C | QNH: 1017.2 hPa | Szél: 2.1 m/s | Részletek
Live ATC LHPR
Webkameránk élőképe

Győr-Pér Repülőtér időjárás adatok

Metar:
METAR LHPR 202145Z AUTO 12003KT CAVOK 14/13 Q1018 RMK BL


Taf:
TAF LHPR 202000Z NIL


Jelenidő:
Nem volt érdemleges időjárási jelenség az elmúlt órában
Időbélyeg: 2018-09-21 08:20:00 UTC
Hőmérséklet:
24.1 °C
 
Harmatpont:
14.9 °C
 
Rel. páratartalom:
57%
 
QNH:
1017.2 hPa
 
Szélsebesség:
2.1 m/s
Max:
3.1 m/s
Szélirány:
140°
 
Csapadék (1 óra):
0.0 mm
 
Látótávolság:
20000 m
 
RVR:
>1500 m RWY30
 
1. felhőréteg mennyisége:
0 octa
 
1. felhőréteg alapja:
m


Az adatokat szolgáltatja
az Országos Meteorológiai Szolgálat
Győr-Pér Repülőtér | H 9099 Pér, Repülőtér | Tel: +36/96/559-200 | Fax: +36/96/559-202

ICAO code: LHPR | IATA code: QGY | AFTN: LHPRZPZX


weboldal tervezés: IRQ